Gambell Airport
PAGM : rendu visible

Aérodrome :











RETROUVEZ-NOUS SUR...

 
LOGIN :

S'inscrire | Disclaimer

   EN    FR    IT 

 









Légende :    VFR   VFR Marginal   IFR   IFR Intensif   IFR Très Intensif
Visi : 
Plafond : 
>= 8 km
>= 3000ft
5 à 8 km
1000 à 3000 ft
1500m à 5 km
500 à 1000 ft
800 à 1500m
200 à 500 ft
< 800m
< 200 ft
Symboles :   Orages  Brouillard  Fortes neiges  Fortes précipitations  Vent > 20 kt






- Altitude de l'aérodrome : 27 ft
- Code IATA : GAM


PAGM - Gambell

DERNIER METAR :
  • 261207Z AUTO 36016KT 10SM BKN014 BKN023 OVC027 01/M01 A2987 RMK AO2 RAE04 P0000 FZRANO

METARs EXPIRÉS :
  • 261156Z AUTO 35016KT 9SM -RA SCT014 OVC027 01/M01 A2986 RMK AO2 RAB36UPB51E52SNB38E51 SLP118 P0000 60000 T00111011 10011 20006 53001 FZRANO
  • 261112Z AUTO 36018KT 10SM SCT012 OVC027 01/M01 A2986 RMK AO2 FZRANO
  • 261056Z AUTO 01019G22KT 10SM BKN012 OVC027 01/M01 A2986 RMK AO2 UPB05E06RAB06E15SNE05 SLP117 P0000 T00111011 FZRANO
  • 260956Z AUTO 36016KT 9SM -SN OVC012 01/M01 A2986 RMK AO2 RAB14E38UPB24E39SNE14B39 SLP118 P0000 T00111011 FZRANO

TAF N/A
FIR PAZA / Amérique du Nord



MET'MAP, la Météo Aéronautique d'un coup d'oeil ! - Copyright ORBIFLY Décembre 2007 - Disclaimer

ORBIFLY MET'MAP TEAM :

Programmation & Développement : Alexandra Zaïnal
Sur une idée originale de : Baudouin d'Aumeries
Assistance à la programmation : Marc-Olivier Méhu
Soutien technique & logistique : Manuel Goepfert

Contact : metmap@orbifly.com




SOURCES & CREDITS :

   NOAA       Earth
Advisory